메인 페이지
METAR-TAF:

METAR-TAF

공항 :

바마코, 말리

위도: 12-32N, 경도: 007-57W, 고도: 380m

현재 날씨관측

예보는 37분 전, 15:30시(UTC)에 발표되었습니다.
여러 방향의 바람 2kt
온도 35°C
습도 13%
기압 1014 hPa
시정 10km 이상
1500m 미만 상공 구름 및 적란운 없음

METAR: GABS 181530Z VRB02KT CAVOK 35/02 Q1014 NOSIG

시각: 16:07 (16:07 UTC)

예보

예보는 4 시간 37분 전, 11:30시(UTC)에 발표되었습니다.
예보 대상 시간: 18일 12시부터 19일 18시까지 (UTC)
동북동8kt
시정 10km 이상
1500m 미만 상공 구름 및 적란운 없음

TAF: GABS 181130Z 1812/1918 07008KT CAVOK

4,000개 이상의 공항 관측 자료 및 예보 (METAR 및 TAF 보고).

지도상에서 검색 가능한 기상관측소가 노란 점과 빨간 점으로 표시되어 있습니다.

기상관측소 명을 보려면 표시 위로 마우스를 이동하세요.

날씨 관측과 예보를 보려면 클릭하세요.

지도 변경 : 확대하려면 엑스 표시가 있는 녹색 버튼, 축소하려면 빼기 표시가 있는 녹색 버튼, 다음 페이지의 지도를 보려면 녹색 화살표를 클릭하세요.


METAR-TAF: